Time;durP1;ratioP1;P1;durP2;ratioP2;P2;SDS_P1;SDS_P2;PMS_P1;PMS_P2;Temp;Humidity;BMP_temperature;BMP_pressure;BME280_temperature;BME280_humidity;BME280_pressure;Samples;Min_cycle;Max_cycle;Signal;HPM_P1;HPM_P2
2021/11/07 00:02:01;;;;;;;;;40.25;36.25;;;;;;;;5074058;28;47205;-69
2021/11/07 00:04:36;;;;;;;;;41.50;34.00;;;;;;;;5060635;28;45358;-69
2021/11/07 00:12:27;;;;;;;;;37.75;35.25;;;;;;;;5052135;28;45442;-69
2021/11/07 00:14:52;;;;;;;;;35.00;32.25;;;;;;;;5055252;28;46008;-68
2021/11/07 00:17:21;;;;;;;;;44.00;36.75;;;;;;;;5053397;28;45492;-69
2021/11/07 00:19:50;;;;;;;;;42.25;34.00;;;;;;;;5039804;28;46479;-69
2021/11/07 00:27:28;;;;;;;;;45.25;36.75;;;;;;;;5046255;28;45287;-69
2021/11/07 00:38:16;;;;;;;;;38.75;30.75;;;;;;;;4997549;28;45531;-69
2021/11/07 00:40:49;;;;;;;;;34.25;31.00;;;;;;;;5010380;28;45412;-69
2021/11/07 00:43:29;;;;;;;;;41.75;36.75;;;;;;;;5013005;28;46425;-69
2021/11/07 00:48:52;;;;;;;;;41.25;36.00;;;;;;;;5013136;28;45463;-70
2021/11/07 00:54:24;;;;;;;;;34.75;30.00;;;;;;;;5012470;28;45357;-69
2021/11/07 00:56:53;;;;;;;;;31.00;29.25;;;;;;;;5011141;28;45396;-69
2021/11/07 01:02:00;;;;;;;;;37.00;29.75;;;;;;;;5012654;28;45380;-69
2021/11/07 01:04:27;;;;;;;;;37.75;32.25;;;;;;;;5013567;28;46034;-68
2021/11/07 01:06:52;;;;;;;;;31.25;30.00;;;;;;;;5011774;28;45658;-69
2021/11/07 01:09:17;;;;;;;;;33.00;30.33;;;;;;;;5012989;28;45388;-69
2021/11/07 01:11:43;;;;;;;;;30.00;27.00;;;;;;;;5022866;28;45445;-67
2021/11/07 01:14:10;;;;;;;;;33.00;28.25;;;;;;;;5054959;28;45478;-69
2021/11/07 01:16:35;;;;;;;;;30.50;28.50;;;;;;;;5040724;28;45971;-69
2021/11/07 01:19:01;;;;;;;;;33.00;29.33;;;;;;;;5043524;28;45402;-68
2021/11/07 01:21:29;;;;;;;;;29.75;25.75;;;;;;;;5043870;28;45436;-69
2021/11/07 01:23:57;;;;;;;;;36.00;33.25;;;;;;;;5044744;28;47155;-68
2021/11/07 01:26:29;;;;;;;;;31.75;29.50;;;;;;;;5043939;28;45517;-69
2021/11/07 01:31:51;;;;;;;;;31.50;29.00;;;;;;;;5038167;28;45570;-69
2021/11/07 01:34:40;;;;;;;;;35.00;31.75;;;;;;;;5038661;28;46218;-69
2021/11/07 01:37:08;;;;;;;;;35.50;28.50;;;;;;;;5042987;28;45432;-69
2021/11/07 01:39:42;;;;;;;;;34.25;31.50;;;;;;;;5044774;28;45374;-69
2021/11/07 01:42:27;;;;;;;;;32.25;25.75;;;;;;;;5041959;28;45347;-69
2021/11/07 01:44:56;;;;;;;;;32.75;28.25;;;;;;;;5038459;28;47141;-69
2021/11/07 01:47:23;;;;;;;;;34.25;27.50;;;;;;;;5037485;28;45933;-69
2021/11/07 01:49:48;;;;;;;;;32.50;28.00;;;;;;;;5038565;28;45444;-69
2021/11/07 01:52:15;;;;;;;;;30.50;24.50;;;;;;;;5052213;28;45534;-69
2021/11/07 01:54:48;;;;;;;;;28.00;27.25;;;;;;;;5046594;28;45978;-69
2021/11/07 01:57:15;;;;;;;;;31.75;27.50;;;;;;;;5042790;28;45965;-69
2021/11/07 01:59:47;;;;;;;;;37.50;28.00;;;;;;;;5038197;28;45414;-69
2021/11/07 02:02:13;;;;;;;;;30.25;27.50;;;;;;;;5044111;28;45347;-69
2021/11/07 02:04:42;;;;;;;;;31.00;26.25;;;;;;;;5046746;28;46290;-69
2021/11/07 02:07:08;;;;;;;;;32.50;26.50;;;;;;;;5048974;28;45392;-69
2021/11/07 02:09:33;;;;;;;;;29.00;26.25;;;;;;;;5062708;28;45480;-69
2021/11/07 02:11:58;;;;;;;;;30.25;22.00;;;;;;;;5059757;28;45572;-69
2021/11/07 02:14:24;;;;;;;;;28.00;25.67;;;;;;;;5072954;28;45972;-69
2021/11/07 02:16:49;;;;;;;;;27.33;24.00;;;;;;;;5070347;28;46982;-69
2021/11/07 02:19:16;;;;;;;;;29.33;22.33;;;;;;;;5059971;28;45363;-69
2021/11/07 02:21:45;;;;;;;;;31.25;26.00;;;;;;;;5066929;27;45556;-68
2021/11/07 02:24:14;;;;;;;;;29.75;24.25;;;;;;;;5070298;27;46053;-69
2021/11/07 02:26:40;;;;;;;;;29.50;25.50;;;;;;;;5058474;28;45918;-69
2021/11/07 02:29:06;;;;;;;;;25.75;19.50;;;;;;;;5073494;28;45517;-69
2021/11/07 02:31:31;;;;;;;;;39.67;28.00;;;;;;;;5064226;28;45509;-69
2021/11/07 02:33:56;;;;;;;;;28.67;25.67;;;;;;;;5072405;27;46125;-69
2021/11/07 02:36:21;;;;;;;;;31.50;23.00;;;;;;;;5072394;28;45465;-69
2021/11/07 02:38:48;;;;;;;;;30.33;23.00;;;;;;;;5069335;28;45458;-69
2021/11/07 02:41:13;;;;;;;;;28.00;24.25;;;;;;;;5072037;28;45484;-69
2021/11/07 02:43:42;;;;;;;;;28.33;24.67;;;;;;;;5058711;28;46249;-69
2021/11/07 02:46:07;;;;;;;;;25.25;22.75;;;;;;;;5063166;28;45458;-69
2021/11/07 02:48:33;;;;;;;;;34.25;25.00;;;;;;;;5059261;28;45512;-69
2021/11/07 02:50:58;;;;;;;;;34.67;27.67;;;;;;;;5059884;28;45476;-69
2021/11/07 02:53:23;;;;;;;;;29.67;23.33;;;;;;;;5058678;28;46196;-69
2021/11/07 02:55:48;;;;;;;;;24.33;21.33;;;;;;;;5074102;28;45532;-69
2021/11/07 02:58:13;;;;;;;;;25.00;20.33;;;;;;;;5062131;28;45483;-69
2021/11/07 03:00:39;;;;;;;;;21.33;18.67;;;;;;;;5062819;28;45486;-69
2021/11/07 03:03:05;;;;;;;;;19.50;18.25;;;;;;;;5067100;27;46454;-69
2021/11/07 03:05:31;;;;;;;;;19.50;15.50;;;;;;;;5060450;28;45900;-69
2021/11/07 03:07:57;;;;;;;;;23.00;18.00;;;;;;;;5071059;28;45764;-69
2021/11/07 03:10:23;;;;;;;;;20.50;18.25;;;;;;;;5073638;28;45492;-69
2021/11/07 03:13:01;;;;;;;;;22.75;19.50;;;;;;;;5068376;28;46483;-69
2021/11/07 03:15:26;;;;;;;;;23.25;19.00;;;;;;;;5068459;28;45478;-69
2021/11/07 03:17:52;;;;;;;;;30.67;22.67;;;;;;;;5062120;28;45408;-69
2021/11/07 03:20:17;;;;;;;;;21.33;19.00;;;;;;;;5057778;28;45571;-69
2021/11/07 03:22:42;;;;;;;;;20.33;15.00;;;;;;;;5056696;28;46219;-69
2021/11/07 03:25:07;;;;;;;;;19.33;16.00;;;;;;;;5070423;28;45445;-68
2021/11/07 03:27:38;;;;;;;;;22.75;17.25;;;;;;;;5067024;28;45391;-68
2021/11/07 03:30:34;;;;;;;;;18.00;14.50;;;;;;;;5060382;28;45436;-68
2021/11/07 03:35:56;;;;;;;;;17.50;14.50;;;;;;;;5051244;28;45835;-68
2021/11/07 03:38:23;;;;;;;;;18.50;17.00;;;;;;;;5061916;28;45580;-68
2021/11/07 03:40:48;;;;;;;;;16.25;13.75;;;;;;;;5060577;28;45473;-68
2021/11/07 03:43:13;;;;;;;;;18.00;17.50;;;;;;;;5059715;28;45815;-68
2021/11/07 03:45:39;;;;;;;;;14.33;13.00;;;;;;;;5069283;27;45532;-68
2021/11/07 03:48:04;;;;;;;;;14.25;13.00;;;;;;;;5072553;28;45252;-68
2021/11/07 03:50:30;;;;;;;;;13.00;12.00;;;;;;;;5061203;28;45427;-68
2021/11/07 03:52:56;;;;;;;;;15.00;13.00;;;;;;;;5061211;28;46846;-68
2021/11/07 03:55:21;;;;;;;;;18.00;13.25;;;;;;;;5072079;27;45544;-68
2021/11/07 03:57:46;;;;;;;;;19.00;13.00;;;;;;;;5067596;28;45500;-68
2021/11/07 04:00:12;;;;;;;;;20.00;13.33;;;;;;;;5065088;28;45410;-68
2021/11/07 04:02:39;;;;;;;;;14.75;13.00;;;;;;;;5068796;28;45524;-68
2021/11/07 04:05:05;;;;;;;;;14.00;11.25;;;;;;;;5058868;28;46448;-68
2021/11/07 04:07:31;;;;;;;;;25.75;12.50;;;;;;;;5058406;28;45462;-68
2021/11/07 04:09:56;;;;;;;;;15.25;13.25;;;;;;;;5064679;28;45390;-68
2021/11/07 04:12:21;;;;;;;;;12.67;12.00;;;;;;;;5065499;28;45488;-68
2021/11/07 04:14:46;;;;;;;;;16.33;13.00;;;;;;;;5076078;28;45375;-68
2021/11/07 04:17:12;;;;;;;;;19.67;14.67;;;;;;;;5059480;28;45404;-68
2021/11/07 04:19:37;;;;;;;;;19.33;16.33;;;;;;;;5066022;28;45631;-68
2021/11/07 04:22:05;;;;;;;;;25.25;16.00;;;;;;;;5065325;28;45484;-68
2021/11/07 04:24:31;;;;;;;;;15.25;13.75;;;;;;;;5065798;28;45867;-68
2021/11/07 04:26:56;;;;;;;;;20.25;15.75;;;;;;;;5075126;27;45455;-68
2021/11/07 04:29:22;;;;;;;;;19.00;14.00;;;;;;;;5062007;28;45543;-68
2021/11/07 04:31:47;;;;;;;;;15.00;15.00;;;;;;;;5062900;28;45394;-68
2021/11/07 04:34:12;;;;;;;;;18.67;14.67;;;;;;;;5065893;28;45593;-68
2021/11/07 04:36:37;;;;;;;;;15.67;13.67;;;;;;;;5071690;28;45453;-68
2021/11/07 04:39:03;;;;;;;;;16.00;14.00;;;;;;;;5070027;28;45357;-68
2021/11/07 04:41:28;;;;;;;;;19.50;13.00;;;;;;;;5075028;28;46171;-68
2021/11/07 04:43:53;;;;;;;;;17.00;16.33;;;;;;;;5062271;28;45460;-68
2021/11/07 04:46:19;;;;;;;;;16.50;14.50;;;;;;;;5071365;28;45362;-68
2021/11/07 04:48:45;;;;;;;;;24.00;18.00;;;;;;;;5067564;28;45451;-68
2021/11/07 04:51:11;;;;;;;;;15.50;15.50;;;;;;;;5065564;28;45520;-68
2021/11/07 04:53:37;;;;;;;;;19.25;18.25;;;;;;;;5064088;28;45303;-68
2021/11/07 04:56:02;;;;;;;;;20.75;15.50;;;;;;;;5059397;27;45469;-68
2021/11/07 04:58:27;;;;;;;;;25.00;14.25;;;;;;;;5072399;27;45361;-68
2021/11/07 05:00:52;;;;;;;;;17.33;15.67;;;;;;;;5066079;28;46027;-68
2021/11/07 05:03:17;;;;;;;;;23.00;18.33;;;;;;;;5065428;28;45511;-68
2021/11/07 05:05:43;;;;;;;;;18.00;17.00;;;;;;;;5067611;28;45365;-68
2021/11/07 05:08:08;;;;;;;;;23.25;20.50;;;;;;;;5058185;28;45486;-68
2021/11/07 05:10:34;;;;;;;;;21.33;18.67;;;;;;;;5061168;28;46307;-68
2021/11/07 05:12:59;;;;;;;;;23.75;22.50;;;;;;;;5068299;28;46030;-68
2021/11/07 05:15:25;;;;;;;;;23.67;20.33;;;;;;;;5065745;27;45672;-68
2021/11/07 05:17:50;;;;;;;;;25.00;19.00;;;;;;;;5058487;28;45479;-68
2021/11/07 05:20:15;;;;;;;;;25.00;18.50;;;;;;;;5075539;28;45361;-68
2021/11/07 05:22:41;;;;;;;;;30.00;21.50;;;;;;;;5062580;28;45493;-68
2021/11/07 05:25:07;;;;;;;;;30.50;19.25;;;;;;;;5073739;28;47802;-68
2021/11/07 05:27:33;;;;;;;;;23.25;20.75;;;;;;;;5070683;28;45491;-68
2021/11/07 05:29:58;;;;;;;;;18.75;17.75;;;;;;;;5066877;27;45515;-68
2021/11/07 05:32:23;;;;;;;;;15.00;12.50;;;;;;;;5061274;28;45351;-68
2021/11/07 05:34:48;;;;;;;;;22.33;14.67;;;;;;;;5058937;28;45501;-68
2021/11/07 05:37:13;;;;;;;;;18.67;17.67;;;;;;;;5063329;28;45387;-68
2021/11/07 05:39:39;;;;;;;;;21.33;14.00;;;;;;;;5067117;28;45501;-68
2021/11/07 05:42:04;;;;;;;;;17.33;14.00;;;;;;;;5071193;28;45524;-68
2021/11/07 05:44:30;;;;;;;;;19.50;17.00;;;;;;;;5070373;28;45423;-68
2021/11/07 05:46:55;;;;;;;;;13.67;13.67;;;;;;;;5058185;28;45370;-68
2021/11/07 05:49:21;;;;;;;;;17.25;15.00;;;;;;;;5062026;28;45430;-68
2021/11/07 05:51:46;;;;;;;;;16.25;15.50;;;;;;;;5068186;28;45497;-68
2021/11/07 05:54:11;;;;;;;;;21.00;15.00;;;;;;;;5070895;28;45516;-68
2021/11/07 05:56:37;;;;;;;;;22.33;18.00;;;;;;;;5066348;28;45480;-68
2021/11/07 05:59:02;;;;;;;;;16.67;14.67;;;;;;;;5056508;28;46091;-68
2021/11/07 06:01:27;;;;;;;;;21.00;18.00;;;;;;;;5073366;28;45298;-68
2021/11/07 06:03:53;;;;;;;;;19.50;17.00;;;;;;;;5065384;28;45496;-68
2021/11/07 06:06:19;;;;;;;;;22.50;17.00;;;;;;;;5062888;28;45451;-68
2021/11/07 06:08:44;;;;;;;;;18.50;14.75;;;;;;;;5062261;28;46826;-68
2021/11/07 06:11:09;;;;;;;;;19.67;13.67;;;;;;;;5064371;28;45339;-68
2021/11/07 06:13:35;;;;;;;;;17.75;14.50;;;;;;;;5069231;28;45331;-68
2021/11/07 06:16:02;;;;;;;;;22.00;17.00;;;;;;;;5069577;28;45422;-68
2021/11/07 06:18:27;;;;;;;;;18.00;14.50;;;;;;;;5066505;28;46344;-68
2021/11/07 06:20:52;;;;;;;;;16.67;16.67;;;;;;;;5059783;28;45453;-68
2021/11/07 06:23:17;;;;;;;;;15.67;14.00;;;;;;;;5059143;28;45608;-68
2021/11/07 06:25:43;;;;;;;;;16.67;15.00;;;;;;;;5058932;28;45397;-68
2021/11/07 06:28:08;;;;;;;;;19.50;19.00;;;;;;;;5062578;28;47032;-68
2021/11/07 06:30:34;;;;;;;;;16.50;15.00;;;;;;;;5062944;28;45745;-68
2021/11/07 06:32:59;;;;;;;;;22.25;16.00;;;;;;;;5063001;28;45462;-68
2021/11/07 06:35:25;;;;;;;;;16.00;14.67;;;;;;;;5059748;28;45460;-68
2021/11/07 06:37:51;;;;;;;;;20.75;14.00;;;;;;;;5057791;28;46294;-68
2021/11/07 06:40:16;;;;;;;;;16.25;15.00;;;;;;;;5063839;28;45550;-68
2021/11/07 06:42:41;;;;;;;;;16.25;15.50;;;;;;;;5063646;28;45323;-68
2021/11/07 06:45:07;;;;;;;;;15.00;14.75;;;;;;;;5062080;28;45354;-68
2021/11/07 06:47:33;;;;;;;;;17.75;15.00;;;;;;;;5060208;28;47172;-68
2021/11/07 06:49:58;;;;;;;;;19.00;14.50;;;;;;;;5063215;28;45299;-68
2021/11/07 06:52:23;;;;;;;;;22.00;15.67;;;;;;;;5069419;28;45599;-68
2021/11/07 06:54:49;;;;;;;;;17.50;15.25;;;;;;;;5065059;28;45340;-68
2021/11/07 06:57:15;;;;;;;;;20.50;18.50;;;;;;;;5062474;28;46112;-68
2021/11/07 06:59:40;;;;;;;;;15.25;12.75;;;;;;;;5060823;28;45401;-68
2021/11/07 07:02:06;;;;;;;;;18.00;15.00;;;;;;;;5061265;28;45505;-68
2021/11/07 07:04:31;;;;;;;;;25.50;15.50;;;;;;;;5060228;28;45357;-68
2021/11/07 07:06:56;;;;;;;;;19.00;15.25;;;;;;;;5066437;28;46344;-68
2021/11/07 07:09:25;;;;;;;;;17.00;16.00;;;;;;;;5068761;28;45623;-68
2021/11/07 07:11:55;;;;;;;;;15.00;9.50;;;;;;;;5063711;28;45514;-68
2021/11/07 07:14:26;;;;;;;;;16.75;14.75;;;;;;;;5077129;28;45459;-68
2021/11/07 07:35:03;;;;;;;;;11.00;10.75;;;;;;;;5074576;28;45317;-68
2021/11/07 07:37:29;;;;;;;;;22.00;18.25;;;;;;;;5069600;27;46377;-68
2021/11/07 07:39:55;;;;;;;;;19.50;14.75;;;;;;;;5069475;28;45453;-68
2021/11/07 07:42:20;;;;;;;;;22.75;15.75;;;;;;;;5065011;28;45438;-68
2021/11/07 07:44:49;;;;;;;;;21.75;16.00;;;;;;;;5070388;28;45506;-68
2021/11/07 07:47:15;;;;;;;;;20.50;15.50;;;;;;;;5072849;28;47034;-68
2021/11/07 07:49:41;;;;;;;;;20.75;16.25;;;;;;;;5059975;28;45508;-68
2021/11/07 07:52:06;;;;;;;;;20.50;17.25;;;;;;;;5060228;28;45312;-68
2021/11/07 07:54:31;;;;;;;;;19.67;15.00;;;;;;;;5064163;27;45439;-68
2021/11/07 07:56:57;;;;;;;;;17.00;15.67;;;;;;;;5067602;28;45761;-68
2021/11/07 07:59:22;;;;;;;;;19.75;16.50;;;;;;;;5059332;28;45525;-68
2021/11/07 08:01:47;;;;;;;;;17.67;16.00;;;;;;;;5073176;28;45485;-68
2021/11/07 08:04:12;;;;;;;;;18.33;16.00;;;;;;;;5068547;28;45421;-68
2021/11/07 08:06:38;;;;;;;;;20.33;16.33;;;;;;;;5061632;28;46160;-68
2021/11/07 08:09:03;;;;;;;;;22.33;16.67;;;;;;;;5062398;28;45520;-68
2021/11/07 08:11:29;;;;;;;;;19.25;16.25;;;;;;;;5076124;27;45550;-69
2021/11/07 08:13:54;;;;;;;;;14.00;13.00;;;;;;;;5062288;28;45367;-68
2021/11/07 08:16:21;;;;;;;;;19.25;15.75;;;;;;;;5071380;27;45410;-68
2021/11/07 08:18:46;;;;;;;;;24.00;21.00;;;;;;;;5073168;27;45863;-68
2021/11/07 08:21:11;;;;;;;;;16.50;15.00;;;;;;;;5071757;28;45420;-68
2021/11/07 08:23:37;;;;;;;;;19.00;15.67;;;;;;;;5070753;28;45495;-68
2021/11/07 08:26:03;;;;;;;;;19.33;16.00;;;;;;;;5060961;28;46189;-68
2021/11/07 08:28:30;;;;;;;;;16.25;14.00;;;;;;;;5071364;28;45908;-68
2021/11/07 08:31:04;;;;;;;;;19.75;14.50;;;;;;;;5070174;28;45624;-68
2021/11/07 08:33:29;;;;;;;;;16.25;13.75;;;;;;;;5073060;28;45488;-68
2021/11/07 08:36:01;;;;;;;;;17.00;14.75;;;;;;;;5072181;28;45904;-68
2021/11/07 08:38:30;;;;;;;;;14.25;13.50;;;;;;;;5070575;28;45976;-70
2021/11/07 08:40:57;;;;;;;;;18.00;16.25;;;;;;;;5061824;28;45350;-69
2021/11/07 09:07:39;;;;;;;;;14.50;13.75;;;;;;;;5010319;28;45480;-68
2021/11/07 09:10:10;;;;;;;;;16.75;14.50;;;;;;;;5007059;28;45975;-69
2021/11/07 09:12:36;;;;;;;;;14.50;14.50;;;;;;;;5007752;28;45499;-70
2021/11/07 09:15:01;;;;;;;;;22.25;16.50;;;;;;;;5008759;28;45503;-68
2021/11/07 09:17:31;;;;;;;;;15.00;13.50;;;;;;;;5005045;28;46049;-69
2021/11/07 09:19:57;;;;;;;;;19.00;15.25;;;;;;;;5003261;28;45711;-69
2021/11/07 09:22:33;;;;;;;;;22.00;16.75;;;;;;;;5006574;28;45579;-69
2021/11/07 09:25:05;;;;;;;;;20.00;14.50;;;;;;;;5000976;28;45425;-70
2021/11/07 09:27:37;;;;;;;;;23.50;20.00;;;;;;;;5000893;28;45489;-67
2021/11/07 09:30:28;;;;;;;;;21.75;17.25;;;;;;;;5001156;28;45437;-70
2021/11/07 09:33:14;;;;;;;;;19.75;14.00;;;;;;;;5001785;28;46832;-69
2021/11/07 09:36:13;;;;;;;;;15.75;15.50;;;;;;;;5003128;28;46039;-69
2021/11/07 09:38:31;;;;;;;;;19.00;18.75;;;;;;;;5006701;28;46745;-69
2021/11/07 09:41:19;;;;;;;;;21.50;19.00;;;;;;;;5006340;28;45527;-69
2021/11/07 09:46:18;;;;;;;;;15.50;15.25;;;;;;;;5063063;28;45701;-68
2021/11/07 09:48:51;;;;;;;;;17.00;16.00;;;;;;;;5059339;28;45484;-69
2021/11/07 09:51:18;;;;;;;;;22.00;16.25;;;;;;;;5066677;28;45544;-69
2021/11/07 09:53:44;;;;;;;;;20.50;15.25;;;;;;;;5067270;28;45392;-69
2021/11/07 09:56:11;;;;;;;;;17.25;15.25;;;;;;;;5059130;28;45482;-69
2021/11/07 09:58:40;;;;;;;;;18.50;16.50;;;;;;;;5060611;28;46091;-69
2021/11/07 10:01:05;;;;;;;;;16.75;14.00;;;;;;;;5060834;28;45893;-69
2021/11/07 10:03:33;;;;;;;;;19.33;16.67;;;;;;;;5061048;28;45473;-68
2021/11/07 10:05:58;;;;;;;;;18.25;14.25;;;;;;;;5063036;28;45455;-69
2021/11/07 10:08:25;;;;;;;;;20.75;17.25;;;;;;;;5056305;28;47030;-69
2021/11/07 10:11:02;;;;;;;;;15.50;14.50;;;;;;;;5058273;28;46314;-69
2021/11/07 10:13:28;;;;;;;;;11.75;10.50;;;;;;;;5059816;28;45497;-70
2021/11/07 10:16:04;;;;;;;;;13.75;13.75;;;;;;;;5068037;28;45405;-69
2021/11/07 10:18:45;;;;;;;;;17.25;16.75;;;;;;;;5066358;28;45402;-68
2021/11/07 10:21:19;;;;;;;;;13.50;12.00;;;;;;;;5062340;27;45493;-69
2021/11/07 10:23:48;;;;;;;;;17.00;13.00;;;;;;;;5060019;28;45248;-69
2021/11/07 10:26:26;;;;;;;;;18.25;15.75;;;;;;;;5059854;28;45639;-69
2021/11/07 10:28:57;;;;;;;;;15.50;13.25;;;;;;;;5067587;28;47264;-69
2021/11/07 10:45:07;;;;;;;;;14.00;12.25;;;;;;;;5066943;27;45497;-69
2021/11/07 10:52:32;;;;;;;;;16.25;12.75;;;;;;;;5071775;28;45365;-68
2021/11/07 10:54:58;;;;;;;;;14.50;13.00;;;;;;;;5066796;28;45395;-68
2021/11/07 10:57:26;;;;;;;;;14.50;13.50;;;;;;;;5067407;28;45830;-68
2021/11/07 11:00:05;;;;;;;;;14.25;12.50;;;;;;;;5073077;28;45564;-69
2021/11/07 11:02:36;;;;;;;;;13.75;13.00;;;;;;;;5062415;28;45516;-69
2021/11/07 11:05:06;;;;;;;;;14.50;13.25;;;;;;;;5060740;28;45768;-69
2021/11/07 11:07:32;;;;;;;;;5.75;5.75;;;;;;;;5064605;28;45475;-69
2021/11/07 11:10:13;;;;;;;;;5.00;5.00;;;;;;;;5067067;28;45435;-69
2021/11/07 11:12:57;;;;;;;;;6.75;3.75;;;;;;;;5065909;28;45630;-69
2021/11/07 11:15:31;;;;;;;;;4.50;4.50;;;;;;;;5069258;28;45652;-69
2021/11/07 11:18:54;;;;;;;;;4.25;3.25;;;;;;;;5068564;28;45418;-69
2021/11/07 11:21:18;;;;;;;;;5.00;3.00;;;;;;;;5060763;28;46103;-69
2021/11/07 11:32:00;;;;;;;;;7.75;2.75;;;;;;;;5064472;28;45466;-69
2021/11/07 11:34:33;;;;;;;;;6.00;4.25;;;;;;;;5066352;28;45459;-69
2021/11/07 11:39:44;;;;;;;;;6.00;3.00;;;;;;;;5062003;28;45551;-68
2021/11/07 11:42:47;;;;;;;;;2.00;2.00;;;;;;;;5068107;28;47239;-69
2021/11/07 11:45:03;;;;;;;;;4.00;4.00;;;;;;;;5064433;28;45853;-68
2021/11/07 11:47:36;;;;;;;;;4.75;3.75;;;;;;;;5068454;28;45633;-69
2021/11/07 11:52:56;;;;;;;;;3.75;3.75;;;;;;;;5066406;27;45502;-69
2021/11/07 12:00:47;;;;;;;;;8.75;5.00;;;;;;;;5078526;27;45552;-68
2021/11/07 12:03:34;;;;;;;;;6.00;5.25;;;;;;;;5065747;27;47048;-68
2021/11/07 12:06:14;;;;;;;;;10.50;5.00;;;;;;;;5069351;28;45369;-68
2021/11/07 12:09:02;;;;;;;;;7.25;3.50;;;;;;;;5073468;27;45493;-68
2021/11/07 12:14:06;;;;;;;;;6.50;4.25;;;;;;;;5060783;28;45955;-69
2021/11/07 12:16:53;;;;;;;;;3.50;3.50;;;;;;;;5068200;28;45623;-68
2021/11/07 12:19:19;;;;;;;;;5.00;4.25;;;;;;;;5064238;28;45781;-69
2021/11/07 12:21:51;;;;;;;;;6.50;5.00;;;;;;;;5064889;28;45697;-68
2021/11/07 12:24:20;;;;;;;;;4.00;4.00;;;;;;;;5065038;28;45450;-68
2021/11/07 12:26:45;;;;;;;;;5.25;4.00;;;;;;;;5071225;27;45508;-69
2021/11/07 12:29:11;;;;;;;;;6.75;5.50;;;;;;;;5069901;28;45436;-69
2021/11/07 12:31:55;;;;;;;;;6.00;5.25;;;;;;;;5062963;28;45562;-69
2021/11/07 12:34:22;;;;;;;;;5.75;4.25;;;;;;;;5071301;28;45420;-69
2021/11/07 12:42:18;;;;;;;;;8.00;5.00;;;;;;;;5067414;28;45540;-69
2021/11/07 12:44:47;;;;;;;;;8.75;6.00;;;;;;;;5053290;28;47264;-68
2021/11/07 12:47:13;;;;;;;;;7.00;3.75;;;;;;;;5067842;28;45762;-68
2021/11/07 12:49:40;;;;;;;;;6.00;3.00;;;;;;;;5060954;28;45576;-68
2021/11/07 12:52:05;;;;;;;;;9.25;5.25;;;;;;;;5066677;28;45335;-69
2021/11/07 12:54:32;;;;;;;;;8.33;4.00;;;;;;;;5063687;28;46282;-68
2021/11/07 12:56:57;;;;;;;;;8.75;8.50;;;;;;;;5068577;27;45429;-68
2021/11/07 12:59:22;;;;;;;;;7.00;7.00;;;;;;;;5060431;28;45678;-69
2021/11/07 13:01:55;;;;;;;;;6.67;4.00;;;;;;;;5072542;28;45548;-69
2021/11/07 13:04:22;;;;;;;;;7.00;5.00;;;;;;;;5063074;28;45655;-69
2021/11/07 13:06:50;;;;;;;;;9.50;6.75;;;;;;;;5062843;28;45868;-69
2021/11/07 13:09:19;;;;;;;;;7.25;5.00;;;;;;;;5073437;27;45304;-69
2021/11/07 13:11:49;;;;;;;;;7.75;3.75;;;;;;;;5073875;28;45423;-69
2021/11/07 13:14:29;;;;;;;;;7.50;6.00;;;;;;;;5060647;28;45297;-69
2021/11/07 13:20:12;;;;;;;;;5.25;4.00;;;;;;;;5059819;28;45572;-69
2021/11/07 13:25:20;;;;;;;;;6.33;4.00;;;;;;;;5064389;28;45555;-69
2021/11/07 13:27:49;;;;;;;;;5.00;3.00;;;;;;;;5067496;28;45740;-69
2021/11/07 13:30:17;;;;;;;;;7.25;4.00;;;;;;;;5069842;28;45387;-68
2021/11/07 13:32:42;;;;;;;;;6.50;2.00;;;;;;;;5051676;28;45424;-69
2021/11/07 13:35:17;;;;;;;;;9.33;3.67;;;;;;;;5060282;28;45588;-69
2021/11/07 13:37:56;;;;;;;;;3.75;3.25;;;;;;;;5056693;28;45818;-68
2021/11/07 13:40:31;;;;;;;;;7.00;4.00;;;;;;;;5071720;27;45467;-70
2021/11/07 13:43:14;;;;;;;;;3.50;3.50;;;;;;;;5063282;28;45514;-69
2021/11/07 13:45:42;;;;;;;;;44.25;35.25;;;;;;;;5065653;28;46779;-69
2021/11/07 13:48:14;;;;;;;;;5.75;4.75;;;;;;;;5069527;28;45458;-69
2021/11/07 13:50:39;;;;;;;;;5.00;4.00;;;;;;;;5064388;28;46001;-68
2021/11/07 13:53:05;;;;;;;;;5.00;3.00;;;;;;;;5066054;27;45561;-68
2021/11/07 13:55:35;;;;;;;;;4.75;4.25;;;;;;;;5074368;28;46962;-69
2021/11/07 13:58:14;;;;;;;;;4.50;3.50;;;;;;;;5071845;28;45515;-69
2021/11/07 14:00:40;;;;;;;;;4.00;3.50;;;;;;;;5072242;28;45481;-69
2021/11/07 14:03:09;;;;;;;;;5.75;3.50;;;;;;;;5069245;28;45430;-68
2021/11/07 14:05:39;;;;;;;;;5.50;5.00;;;;;;;;5071048;28;46366;-68
2021/11/07 14:08:06;;;;;;;;;5.00;4.00;;;;;;;;5064383;28;45782;-68
2021/11/07 14:10:32;;;;;;;;;8.75;5.25;;;;;;;;5068805;28;45398;-68
2021/11/07 14:12:58;;;;;;;;;6.00;3.00;;;;;;;;5069518;28;45475;-68
2021/11/07 14:15:26;;;;;;;;;3.75;2.00;;;;;;;;5069826;27;46079;-68
2021/11/07 14:17:53;;;;;;;;;7.75;4.75;;;;;;;;5070200;28;45395;-68
2021/11/07 14:20:37;;;;;;;;;8.00;5.75;;;;;;;;5072518;28;45296;-68
2021/11/07 14:23:11;;;;;;;;;6.25;2.75;;;;;;;;5067532;28;45721;-68
2021/11/07 14:25:53;;;;;;;;;5.50;4.00;;;;;;;;5058862;28;47081;-68
2021/11/07 14:28:27;;;;;;;;;2.00;2.00;;;;;;;;5060615;28;45711;-68
2021/11/07 14:30:54;;;;;;;;;111.50;93.75;;;;;;;;5068389;28;45526;-68
2021/11/07 14:33:26;;;;;;;;;11.00;7.00;;;;;;;;5070842;28;45463;-68
2021/11/07 14:35:55;;;;;;;;;7.00;4.75;;;;;;;;5069622;27;45587;-68
2021/11/07 14:38:30;;;;;;;;;11.00;5.00;;;;;;;;5069944;28;45308;-68
2021/11/07 14:41:09;;;;;;;;;6.25;3.00;;;;;;;;5069780;28;45410;-68
2021/11/07 14:43:40;;;;;;;;;4.75;3.25;;;;;;;;5068494;28;45528;-68
2021/11/07 14:46:23;;;;;;;;;2.75;1.50;;;;;;;;5061165;28;45604;-68
2021/11/07 14:56:48;;;;;;;;;5.00;2.00;;;;;;;;5061422;27;45497;-69
2021/11/07 14:59:25;;;;;;;;;5.25;3.00;;;;;;;;5063702;27;46507;-68
2021/11/07 15:04:42;;;;;;;;;7.25;5.00;;;;;;;;5065131;28;45493;-69
2021/11/07 15:10:21;;;;;;;;;5.67;3.67;;;;;;;;5067536;27;46695;-68
2021/11/07 15:12:31;;;;;;;;;3.75;3.00;;;;;;;;5061835;28;45550;-68
2021/11/07 15:15:55;;;;;;;;;4.75;3.00;;;;;;;;5067428;28;45328;-68
2021/11/07 15:18:02;;;;;;;;;4.50;3.00;;;;;;;;5046929;28;45927;-68
2021/11/07 15:20:44;;;;;;;;;5.25;1.75;;;;;;;;5067547;27;45896;-68
2021/11/07 15:23:23;;;;;;;;;6.75;5.00;;;;;;;;5071000;27;45454;-68
2021/11/07 15:25:49;;;;;;;;;7.25;3.25;;;;;;;;5056602;27;45475;-68
2021/11/07 15:28:16;;;;;;;;;4.00;3.25;;;;;;;;5073651;27;46108;-68
2021/11/07 15:30:42;;;;;;;;;4.25;2.50;;;;;;;;5068645;27;45701;-68
2021/11/07 15:33:15;;;;;;;;;12.50;3.50;;;;;;;;5068107;27;45283;-68
2021/11/07 15:35:44;;;;;;;;;7.25;3.00;;;;;;;;5070914;27;45416;-68
2021/11/07 15:38:11;;;;;;;;;6.00;4.00;;;;;;;;5070228;27;46921;-68
2021/11/07 15:40:38;;;;;;;;;3.50;3.00;;;;;;;;5069989;28;45446;-68
2021/11/07 15:43:11;;;;;;;;;3.25;1.75;;;;;;;;5069339;27;45804;-68
2021/11/07 15:45:51;;;;;;;;;4.75;3.25;;;;;;;;5072442;28;45541;-69
2021/11/07 15:48:19;;;;;;;;;9.25;4.00;;;;;;;;5074989;27;47147;-68
2021/11/07 15:50:53;;;;;;;;;5.25;4.00;;;;;;;;5069372;27;45726;-69
2021/11/07 15:53:30;;;;;;;;;4.75;3.00;;;;;;;;5069106;28;45709;-69
2021/11/07 15:56:10;;;;;;;;;5.25;3.75;;;;;;;;5063229;28;45404;-68
2021/11/07 15:58:56;;;;;;;;;9.50;3.50;;;;;;;;5069849;28;45474;-69
2021/11/07 16:01:33;;;;;;;;;2.50;2.50;;;;;;;;5074847;28;46164;-69
2021/11/07 16:12:10;;;;;;;;;3.67;3.00;;;;;;;;5069880;27;45476;-69
2021/11/07 16:14:39;;;;;;;;;4.50;3.00;;;;;;;;5075761;27;45496;-69
2021/11/07 16:17:14;;;;;;;;;4.75;2.00;;;;;;;;5062558;28;45528;-69
2021/11/07 16:19:42;;;;;;;;;5.50;3.50;;;;;;;;5067057;28;46396;-69
2021/11/07 16:22:07;;;;;;;;;5.00;2.75;;;;;;;;5070484;28;45821;-69
2021/11/07 16:24:33;;;;;;;;;3.00;3.00;;;;;;;;5071298;27;45682;-69
2021/11/07 16:27:03;;;;;;;;;2.33;2.00;;;;;;;;5050349;28;45497;-69
2021/11/07 16:29:30;;;;;;;;;4.25;2.00;;;;;;;;5063374;27;46016;-69
2021/11/07 16:34:25;;;;;;;;;4.75;3.00;;;;;;;;5073277;28;45467;-68
2021/11/07 16:36:51;;;;;;;;;8.25;2.00;;;;;;;;5071499;28;45556;-69
2021/11/07 16:39:22;;;;;;;;;3.25;2.00;;;;;;;;5051373;28;46450;-69
2021/11/07 16:41:50;;;;;;;;;2.25;1.50;;;;;;;;5066544;28;45539;-69
2021/11/07 16:44:17;;;;;;;;;2.75;2.75;;;;;;;;5061887;28;45584;-69
2021/11/07 16:46:53;;;;;;;;;3.50;3.50;;;;;;;;5066959;28;45851;-69
2021/11/07 16:49:22;;;;;;;;;7.25;2.00;;;;;;;;5067432;28;47814;-69
2021/11/07 16:51:58;;;;;;;;;4.50;4.00;;;;;;;;5072564;27;46226;-69
2021/11/07 16:54:27;;;;;;;;;5.25;3.75;;;;;;;;5073367;27;45568;-68
2021/11/07 16:56:52;;;;;;;;;5.50;4.00;;;;;;;;5060990;27;45624;-69
2021/11/07 17:02:10;;;;;;;;;4.25;3.00;;;;;;;;5064904;28;46545;-69
2021/11/07 17:04:40;;;;;;;;;3.00;2.00;;;;;;;;5067704;27;45570;-69
2021/11/07 17:09:52;;;;;;;;;3.75;3.75;;;;;;;;5068844;28;46054;-68
2021/11/07 17:12:20;;;;;;;;;5.50;4.00;;;;;;;;5067917;28;45285;-69
2021/11/07 17:14:49;;;;;;;;;9.00;5.75;;;;;;;;5075023;28;45547;-68
2021/11/07 17:17:23;;;;;;;;;5.50;4.00;;;;;;;;5059341;28;45465;-69